Arapaho — WCX9424 — position and weather

sailwx.info

Track history (hours):
 
Tides and Currents Weather Stations Pressure Air Temp Water Temp Dewpoint Dewpoint Depression Visibility Wind Speed Wind Dir Waves Ship Positions

Arapaho

Owner: SAUSE BROTHERS OCEAN TOWING CO INC, LONG BEACH, CA. More information available from US FCC via Universal Licensing System and Coast Guard Vessel Documentation Center.

Last reported at 2015-May-05 03:28 UTC. Time now 2015-May-05 04:10 UTC.
Position N 33°44' W 118°11'.

Length 37 m; draft 1.5 m.

Type: Towing. MMSI: 367004270.

Date/timePositionNaut miles runAvg speedWind from/ knotsBaromVisibWave heightAir tempDewpointWater temp
2015-May-05 03:28N 33°44' W 118°11'1 1.2
2015-May-05 02:33N 33°45' W 118°12'0 0.0
2015-May-05 01:33N 33°45' W 118°12'1 1.1
2015-May-05 00:32N 33°44' W 118°11'0 0.5
2015-May-04 23:33N 33°44' W 118°12'2 1.9
2015-May-04 22:33N 33°46' W 118°11'1 1.0
2015-May-04 21:33N 33°45' W 118°10'2 1.8
2015-May-04 20:31N 33°44' W 118°11'1 1.4
2015-May-04 19:34N 33°45' W 118°12'0 0.0
2015-May-04 18:33N 33°45' W 118°12'2 2.2
2015-May-04 17:33N 33°45' W 118°10'0 0.0
2015-May-04 16:33N 33°45' W 118°10'2 1.6
2015-May-04 15:32N 33°44' W 118°11'  
2015-May-02 11:20N 33°45' W 118°12'2 2.7
2015-May-02 10:33N 33°45' W 118°10'0 0.0
2015-May-02 09:33N 33°45' W 118°10'1 0.6
2015-May-02 08:33N 33°45' W 118°10'0 0.4
2015-May-02 07:33N 33°45' W 118°10'0 0.4
2015-May-02 06:33N 33°45' W 118°10'0 0.4
2015-May-02 05:33N 33°45' W 118°10'0 0.4
2015-May-02 04:33N 33°45' W 118°10'1 1.1
2015-May-02 03:33N 33°44' W 118°11'1 1.4
2015-May-02 02:33N 33°45' W 118°12'0 0.0
2015-May-02 01:33N 33°45' W 118°12'2 2.2
2015-May-02 00:33N 33°45' W 118°10'2 2.2
2015-May-01 23:33N 33°45' W 118°12'3 2.7
2015-May-01 22:33N 33°43' W 118°15'2 1.4
2015-May-01 21:27N 33°44' W 118°16'4 4.0
2015-May-01 20:33N 33°45' W 118°12'3 3.2
2015-May-01 19:33N 33°44' W 118°08'0 0.0
2015-May-01 18:33N 33°44' W 118°08'1 1.1
2015-May-01 17:33N 33°45' W 118°10'2 0.3
2015-May-01 11:25N 33°45' W 118°12'0 0.0
2015-May-01 10:33N 33°45' W 118°12'0 0.0
2015-May-01 09:33N 33°45' W 118°12'0 0.0
2015-May-01 08:33N 33°45' W 118°12'2 2.1
2015-May-01 07:33N 33°45' W 118°10'1 0.6
2015-May-01 06:33N 33°45' W 118°10'1 0.6
2015-May-01 05:33N 33°45' W 118°10'1 0.6
2015-May-01 04:33N 33°45' W 118°10'1 0.7
2015-May-01 03:33N 33°45' W 118°10'2 1.7
2015-May-01 02:33N 33°45' W 118°12'0 0.0
2015-May-01 01:33N 33°45' W 118°12'0 0.0
2015-May-01 00:33N 33°45' W 118°12'0 0.0
2015-Apr-30 23:33N 33°45' W 118°12'0 0.0
2015-Apr-30 22:33N 33°45' W 118°12'2 2.2
2015-Apr-30 21:33N 33°45' W 118°10'0 0.3
2015-Apr-30 20:33N 33°45' W 118°10'2 2.0
2015-Apr-30 19:33N 33°45' W 118°12'0 0.0
2015-Apr-30 18:33N 33°45' W 118°12'3 3.1
2015-Apr-30 17:33N 33°44' W 118°08'0 0.2
2015-Apr-30 16:33N 33°45' W 118°08'0 0.3
2015-Apr-30 15:33N 33°44' W 118°08'3 3.2
2015-Apr-30 14:33N 33°45' W 118°12'0 0.0
2015-Apr-30 13:33N 33°45' W 118°12'0 0.0
2015-Apr-30 12:33N 33°45' W 118°12'0 0.0
2015-Apr-30 11:32N 33°45' W 118°12'0 0.0
2015-Apr-30 10:33N 33°45' W 118°12'0 0.0
2015-Apr-30 09:33N 33°45' W 118°12'0 0.0
2015-Apr-30 08:33N 33°45' W 118°12'2 2.1
2015-Apr-30 07:33N 33°45' W 118°10'1 0.5
2015-Apr-30 06:25N 33°45' W 118°10'1 0.7
2015-Apr-30 05:33N 33°45' W 118°10'1 0.6
2015-Apr-30 04:30N 33°45' W 118°10'1 0.7
2015-Apr-30 03:33N 33°45' W 118°10'2 1.8
2015-Apr-30 02:33N 33°45' W 118°12'0 0.0
2015-Apr-30 01:33N 33°45' W 118°12'0 0.0
2015-Apr-30 00:33N 33°45' W 118°12'0 0.0
2015-Apr-29 23:33N 33°45' W 118°12'1 1.1
2015-Apr-29 22:33N 33°44' W 118°11'2 1.7
2015-Apr-29 21:32N 33°45' W 118°10'1 0.7
2015-Apr-29 20:33N 33°45' W 118°10'2 2.0
2015-Apr-29 19:31N 33°44' W 118°12'2 2.3
2015-Apr-29 18:33N 33°45' W 118°10'1 0.6
2015-Apr-29 17:33N 33°45' W 118°09'1 0.6
2015-Apr-29 16:33N 33°45' W 118°10'2 1.7
2015-Apr-29 15:33N 33°44' W 118°11'1 0.3
2015-Apr-29 11:32N 33°45' W 118°12'0 0.0
2015-Apr-29 10:34N 33°45' W 118°12'2 2.1
2015-Apr-29 09:32N 33°45' W 118°10'0 0.0
2015-Apr-29 08:34N 33°45' W 118°10'0 0.0
2015-Apr-29 07:33N 33°45' W 118°10'1 0.6
2015-Apr-29 06:33N 33°45' W 118°10'1 0.6
2015-Apr-29 05:33N 33°45' W 118°10'1 0.8
2015-Apr-29 04:33N 33°45' W 118°10'1 0.8
2015-Apr-29 03:34N 33°45' W 118°10'1 1.5
2015-Apr-29 02:33N 33°45' W 118°12'0 0.0
2015-Apr-29 01:33N 33°45' W 118°12'0 0.0
2015-Apr-29 00:33N 33°45' W 118°12'0 0.0
2015-Apr-28 23:33N 33°45' W 118°12'0 0.0
2015-Apr-28 22:34N 33°45' W 118°12'2 2.1
2015-Apr-28 21:33N 33°45' W 118°10'1 0.6
2015-Apr-28 20:33N 33°45' W 118°10'2 2.3
2015-Apr-28 19:33N 33°45' W 118°12'0 0.5
2015-Apr-28 18:33N 33°44' W 118°12'3 3.2
2015-Apr-28 17:34N 33°44' W 118°08'0 0.0
2015-Apr-28 16:33N 33°44' W 118°08'2 2.0
2015-Apr-28 15:33N 33°44' W 118°11'1 1.4
2015-Apr-28 14:33N 33°45' W 118°12'2 2.1
2015-Apr-28 13:33N 33°45' W 118°10'0 0.1
2015-Apr-28 12:31N 33°45' W 118°10'0 0.0
2015-Apr-28 11:31N 33°45' W 118°10'1 0.8
2015-Apr-28 10:33N 33°45' W 118°10'0 0.1
2015-Apr-28 09:34N 33°45' W 118°10'0 0.0
2015-Apr-28 08:34N 33°45' W 118°10'0 0.0
2015-Apr-28 07:32N 33°45' W 118°10'1 0.5
2015-Apr-28 06:11N 33°45' W 118°10'1 1.0
2015-Apr-28 05:34N 33°45' W 118°10'1 0.5
2015-Apr-28 04:24N 33°45' W 118°10'2 2.6
2015-Apr-28 03:31N 33°44' W 118°12'0 0.4
2015-Apr-28 02:33N 33°45' W 118°12'0 0.0
2015-Apr-28 01:33N 33°45' W 118°12'0 0.0
2015-Apr-28 00:33N 33°45' W 118°12'0 0.1
2015-Apr-27 23:34N 33°45' W 118°12'2 2.1
2015-Apr-27 22:33N 33°45' W 118°10'1 0.6
2015-Apr-27 21:33N 33°45' W 118°10'1 0.7
2015-Apr-27 20:33N 33°44' W 118°10'1 0.9
2015-Apr-27 19:33N 33°44' W 118°11'2 1.6
2015-Apr-27 18:33N 33°45' W 118°10'1 1.0
2015-Apr-27 17:33N 33°44' W 118°08'0 0.2
2015-Apr-27 16:33N 33°45' W 118°09'3 3.2
2015-Apr-27 15:33N 33°44' W 118°12'2 0.0
2015-Apr-25 12:33N 33°44' W 118°10'1 0.3
2015-Apr-25 10:33N 33°45' W 118°10'0 0.4
2015-Apr-25 09:30N 33°45' W 118°10'1 0.7
2015-Apr-25 08:33N 33°45' W 118°10'1 0.6
2015-Apr-25 07:12N 33°45' W 118°10'1 1.1
2015-Apr-25 06:27N 33°45' W 118°10'0 0.1
2015-Apr-25 05:34N 33°45' W 118°10'1 0.6
2015-Apr-25 04:33N 33°45' W 118°10'  
Track history (hours):
 
Tides and Currents Weather Stations Pressure Air Temp Water Temp Dewpoint Dewpoint Depression Visibility Wind Speed Wind Dir Waves Ship Positions

Arapaho

Owner: SAUSE BROTHERS OCEAN TOWING CO INC, LONG BEACH, CA. More information available from US FCC via Universal Licensing System and Coast Guard Vessel Documentation Center.

Last reported at 2015-May-05 03:28 UTC. Time now 2015-May-05 04:10 UTC.
Position N 33°44' W 118°11'.

Length 37 m; draft 1.5 m.

Type: Towing. MMSI: 367004270.

Date/timePositionNaut miles runAvg speedWind from/ knotsBaromVisibWave heightAir tempDewpointWater temp
2015-May-05 03:28N 33°44' W 118°11'1 1.2
2015-May-05 02:33N 33°45' W 118°12'0 0.0
2015-May-05 01:33N 33°45' W 118°12'1 1.1
2015-May-05 00:32N 33°44' W 118°11'0 0.5
2015-May-04 23:33N 33°44' W 118°12'2 1.9
2015-May-04 22:33N 33°46' W 118°11'1 1.0
2015-May-04 21:33N 33°45' W 118°10'2 1.8
2015-May-04 20:31N 33°44' W 118°11'1 1.4
2015-May-04 19:34N 33°45' W 118°12'0 0.0
2015-May-04 18:33N 33°45' W 118°12'2 2.2
2015-May-04 17:33N 33°45' W 118°10'0 0.0
2015-May-04 16:33N 33°45' W 118°10'2 1.6
2015-May-04 15:32N 33°44' W 118°11'  
2015-May-02 11:20N 33°45' W 118°12'2 2.7
2015-May-02 10:33N 33°45' W 118°10'0 0.0
2015-May-02 09:33N 33°45' W 118°10'1 0.6
2015-May-02 08:33N 33°45' W 118°10'0 0.4
2015-May-02 07:33N 33°45' W 118°10'0 0.4
2015-May-02 06:33N 33°45' W 118°10'0 0.4
2015-May-02 05:33N 33°45' W 118°10'0 0.4
2015-May-02 04:33N 33°45' W 118°10'1 1.1
2015-May-02 03:33N 33°44' W 118°11'1 1.4
2015-May-02 02:33N 33°45' W 118°12'0 0.0
2015-May-02 01:33N 33°45' W 118°12'2 2.2
2015-May-02 00:33N 33°45' W 118°10'2 2.2
2015-May-01 23:33N 33°45' W 118°12'3 2.7
2015-May-01 22:33N 33°43' W 118°15'2 1.4
2015-May-01 21:27N 33°44' W 118°16'4 4.0
2015-May-01 20:33N 33°45' W 118°12'3 3.2
2015-May-01 19:33N 33°44' W 118°08'0 0.0
2015-May-01 18:33N 33°44' W 118°08'1 1.1
2015-May-01 17:33N 33°45' W 118°10'2 0.3
2015-May-01 11:25N 33°45' W 118°12'0 0.0
2015-May-01 10:33N 33°45' W 118°12'0 0.0
2015-May-01 09:33N 33°45' W 118°12'0 0.0
2015-May-01 08:33N 33°45' W 118°12'2 2.1
2015-May-01 07:33N 33°45' W 118°10'1 0.6
2015-May-01 06:33N 33°45' W 118°10'1 0.6
2015-May-01 05:33N 33°45' W 118°10'1 0.6
2015-May-01 04:33N 33°45' W 118°10'1 0.7
2015-May-01 03:33N 33°45' W 118°10'2 1.7
2015-May-01 02:33N 33°45' W 118°12'0 0.0
2015-May-01 01:33N 33°45' W 118°12'0 0.0
2015-May-01 00:33N 33°45' W 118°12'0 0.0
2015-Apr-30 23:33N 33°45' W 118°12'0 0.0
2015-Apr-30 22:33N 33°45' W 118°12'2 2.2
2015-Apr-30 21:33N 33°45' W 118°10'0 0.3
2015-Apr-30 20:33N 33°45' W 118°10'2 2.0
2015-Apr-30 19:33N 33°45' W 118°12'0 0.0
2015-Apr-30 18:33N 33°45' W 118°12'3 3.1
2015-Apr-30 17:33N 33°44' W 118°08'0 0.2
2015-Apr-30 16:33N 33°45' W 118°08'0 0.3
2015-Apr-30 15:33N 33°44' W 118°08'3 3.2
2015-Apr-30 14:33N 33°45' W 118°12'0 0.0
2015-Apr-30 13:33N 33°45' W 118°12'0 0.0
2015-Apr-30 12:33N 33°45' W 118°12'0 0.0
2015-Apr-30 11:32N 33°45' W 118°12'0 0.0
2015-Apr-30 10:33N 33°45' W 118°12'0 0.0
2015-Apr-30 09:33N 33°45' W 118°12'0 0.0
2015-Apr-30 08:33N 33°45' W 118°12'2 2.1
2015-Apr-30 07:33N 33°45' W 118°10'1 0.5
2015-Apr-30 06:25N 33°45' W 118°10'1 0.7
2015-Apr-30 05:33N 33°45' W 118°10'1 0.6
2015-Apr-30 04:30N 33°45' W 118°10'1 0.7
2015-Apr-30 03:33N 33°45' W 118°10'2 1.8
2015-Apr-30 02:33N 33°45' W 118°12'0 0.0
2015-Apr-30 01:33N 33°45' W 118°12'0 0.0
2015-Apr-30 00:33N 33°45' W 118°12'0 0.0
2015-Apr-29 23:33N 33°45' W 118°12'1 1.1
2015-Apr-29 22:33N 33°44' W 118°11'2 1.7
2015-Apr-29 21:32N 33°45' W 118°10'1 0.7
2015-Apr-29 20:33N 33°45' W 118°10'2 2.0
2015-Apr-29 19:31N 33°44' W 118°12'2 2.3
2015-Apr-29 18:33N 33°45' W 118°10'1 0.6
2015-Apr-29 17:33N 33°45' W 118°09'1 0.6
2015-Apr-29 16:33N 33°45' W 118°10'2 1.7
2015-Apr-29 15:33N 33°44' W 118°11'1 0.3
2015-Apr-29 11:32N 33°45' W 118°12'0 0.0
2015-Apr-29 10:34N 33°45' W 118°12'2 2.1
2015-Apr-29 09:32N 33°45' W 118°10'0 0.0
2015-Apr-29 08:34N 33°45' W 118°10'0 0.0
2015-Apr-29 07:33N 33°45' W 118°10'1 0.6
2015-Apr-29 06:33N 33°45' W 118°10'1 0.6
2015-Apr-29 05:33N 33°45' W 118°10'1 0.8
2015-Apr-29 04:33N 33°45' W 118°10'1 0.8
2015-Apr-29 03:34N 33°45' W 118°10'1 1.5
2015-Apr-29 02:33N 33°45' W 118°12'0 0.0
2015-Apr-29 01:33N 33°45' W 118°12'0 0.0
2015-Apr-29 00:33N 33°45' W 118°12'0 0.0
2015-Apr-28 23:33N 33°45' W 118°12'0 0.0
2015-Apr-28 22:34N 33°45' W 118°12'2 2.1
2015-Apr-28 21:33N 33°45' W 118°10'1 0.6
2015-Apr-28 20:33N 33°45' W 118°10'2 2.3
2015-Apr-28 19:33N 33°45' W 118°12'0 0.5
2015-Apr-28 18:33N 33°44' W 118°12'3 3.2
2015-Apr-28 17:34N 33°44' W 118°08'0 0.0
2015-Apr-28 16:33N 33°44' W 118°08'2 2.0
2015-Apr-28 15:33N 33°44' W 118°11'1 1.4
2015-Apr-28 14:33N 33°45' W 118°12'2 2.1
2015-Apr-28 13:33N 33°45' W 118°10'0 0.1
2015-Apr-28 12:31N 33°45' W 118°10'0 0.0
2015-Apr-28 11:31N 33°45' W 118°10'1 0.8
2015-Apr-28 10:33N 33°45' W 118°10'0 0.1
2015-Apr-28 09:34N 33°45' W 118°10'0 0.0
2015-Apr-28 08:34N 33°45' W 118°10'0 0.0
2015-Apr-28 07:32N 33°45' W 118°10'1 0.5
2015-Apr-28 06:11N 33°45' W 118°10'1 1.0
2015-Apr-28 05:34N 33°45' W 118°10'1 0.5
2015-Apr-28 04:24N 33°45' W 118°10'2 2.6
2015-Apr-28 03:31N 33°44' W 118°12'0 0.4
2015-Apr-28 02:33N 33°45' W 118°12'0 0.0
2015-Apr-28 01:33N 33°45' W 118°12'0 0.0
2015-Apr-28 00:33N 33°45' W 118°12'0 0.1
2015-Apr-27 23:34N 33°45' W 118°12'2 2.1
2015-Apr-27 22:33N 33°45' W 118°10'1 0.6
2015-Apr-27 21:33N 33°45' W 118°10'1 0.7
2015-Apr-27 20:33N 33°44' W 118°10'1 0.9
2015-Apr-27 19:33N 33°44' W 118°11'2 1.6
2015-Apr-27 18:33N 33°45' W 118°10'1 1.0
2015-Apr-27 17:33N 33°44' W 118°08'0 0.2
2015-Apr-27 16:33N 33°45' W 118°09'3 3.2
2015-Apr-27 15:33N 33°44' W 118°12'2 0.0
2015-Apr-25 12:33N 33°44' W 118°10'1 0.3
2015-Apr-25 10:33N 33°45' W 118°10'0 0.4
2015-Apr-25 09:30N 33°45' W 118°10'1 0.7
2015-Apr-25 08:33N 33°45' W 118°10'1 0.6
2015-Apr-25 07:12N 33°45' W 118°10'1 1.1
2015-Apr-25 06:27N 33°45' W 118°10'0 0.1
2015-Apr-25 05:34N 33°45' W 118°10'1 0.6
2015-Apr-25 04:33N 33°45' W 118°10'  

Dump ship's entire track history